sensor_id;sensor_type;location;lat;lon;timestamp;P1;durP1;ratioP1;P2;durP2;ratioP2
41689;SDS011;27372;42.658;23.256;2024-03-29T00:01:34;2.60;;;1.40;;
41689;SDS011;27372;42.658;23.256;2024-03-29T00:04:00;3.88;;;1.33;;
41689;SDS011;27372;42.658;23.256;2024-03-29T00:06:25;5.03;;;1.60;;
41689;SDS011;27372;42.658;23.256;2024-03-29T00:08:51;3.35;;;1.50;;
41689;SDS011;27372;42.658;23.256;2024-03-29T00:11:16;7.30;;;1.50;;
41689;SDS011;27372;42.658;23.256;2024-03-29T00:13:42;7.22;;;1.90;;
41689;SDS011;27372;42.658;23.256;2024-03-29T00:16:07;6.47;;;1.90;;
41689;SDS011;27372;42.658;23.256;2024-03-29T00:18:33;4.75;;;1.90;;
41689;SDS011;27372;42.658;23.256;2024-03-29T00:20:58;7.85;;;2.15;;
41689;SDS011;27372;42.658;23.256;2024-03-29T00:23:24;6.88;;;2.20;;
41689;SDS011;27372;42.658;23.256;2024-03-29T00:25:49;4.40;;;2.30;;
41689;SDS011;27372;42.658;23.256;2024-03-29T00:28:14;12.68;;;2.75;;
41689;SDS011;27372;42.658;23.256;2024-03-29T00:30:40;7.30;;;2.60;;
41689;SDS011;27372;42.658;23.256;2024-03-29T00:33:07;6.95;;;2.60;;
41689;SDS011;27372;42.658;23.256;2024-03-29T00:35:32;8.00;;;2.00;;
41689;SDS011;27372;42.658;23.256;2024-03-29T00:37:58;7.95;;;2.00;;
41689;SDS011;27372;42.658;23.256;2024-03-29T00:40:24;7.93;;;2.50;;
41689;SDS011;27372;42.658;23.256;2024-03-29T00:42:49;4.90;;;2.10;;
41689;SDS011;27372;42.658;23.256;2024-03-29T00:45:14;9.15;;;1.70;;
41689;SDS011;27372;42.658;23.256;2024-03-29T00:47:40;5.18;;;1.58;;
41689;SDS011;27372;42.658;23.256;2024-03-29T00:50:05;5.57;;;1.85;;
41689;SDS011;27372;42.658;23.256;2024-03-29T00:52:34;3.58;;;1.50;;
41689;SDS011;27372;42.658;23.256;2024-03-29T00:55:00;4.38;;;1.48;;
41689;SDS011;27372;42.658;23.256;2024-03-29T00:57:25;2.83;;;1.17;;
41689;SDS011;27372;42.658;23.256;2024-03-29T00:59:51;4.05;;;1.42;;
41689;SDS011;27372;42.658;23.256;2024-03-29T01:02:16;4.63;;;1.65;;
41689;SDS011;27372;42.658;23.256;2024-03-29T01:04:42;3.15;;;1.50;;
41689;SDS011;27372;42.658;23.256;2024-03-29T01:07:07;3.03;;;1.50;;
41689;SDS011;27372;42.658;23.256;2024-03-29T01:09:32;7.43;;;1.52;;
41689;SDS011;27372;42.658;23.256;2024-03-29T01:11:58;2.95;;;1.33;;
41689;SDS011;27372;42.658;23.256;2024-03-29T01:14:23;7.65;;;2.03;;
41689;SDS011;27372;42.658;23.256;2024-03-29T01:16:49;5.95;;;1.50;;
41689;SDS011;27372;42.658;23.256;2024-03-29T01:19:14;6.22;;;1.95;;
41689;SDS011;27372;42.658;23.256;2024-03-29T01:21:40;3.90;;;1.55;;
41689;SDS011;27372;42.658;23.256;2024-03-29T01:24:05;3.58;;;1.50;;
41689;SDS011;27372;42.658;23.256;2024-03-29T01:26:31;5.30;;;1.55;;
41689;SDS011;27372;42.658;23.256;2024-03-29T01:28:56;4.72;;;1.60;;
41689;SDS011;27372;42.658;23.256;2024-03-29T01:31:25;1.75;;;1.30;;
41689;SDS011;27372;42.658;23.256;2024-03-29T01:33:51;3.67;;;1.60;;
41689;SDS011;27372;42.658;23.256;2024-03-29T01:36:16;4.07;;;1.50;;
41689;SDS011;27372;42.658;23.256;2024-03-29T01:38:41;4.55;;;1.35;;
41689;SDS011;27372;42.658;23.256;2024-03-29T01:41:10;3.45;;;1.42;;
41689;SDS011;27372;42.658;23.256;2024-03-29T01:43:37;3.22;;;1.70;;
41689;SDS011;27372;42.658;23.256;2024-03-29T01:46:03;2.97;;;1.30;;
41689;SDS011;27372;42.658;23.256;2024-03-29T01:48:31;2.83;;;1.63;;
41689;SDS011;27372;42.658;23.256;2024-03-29T01:50:57;4.57;;;1.70;;
41689;SDS011;27372;42.658;23.256;2024-03-29T01:53:23;3.60;;;1.70;;
41689;SDS011;27372;42.658;23.256;2024-03-29T01:55:50;4.32;;;1.30;;
41689;SDS011;27372;42.658;23.256;2024-03-29T01:58:17;7.93;;;1.70;;
41689;SDS011;27372;42.658;23.256;2024-03-29T02:00:51;3.92;;;1.65;;
41689;SDS011;27372;42.658;23.256;2024-03-29T02:03:19;2.50;;;1.67;;
41689;SDS011;27372;42.658;23.256;2024-03-29T02:05:46;5.05;;;1.67;;
41689;SDS011;27372;42.658;23.256;2024-03-29T02:08:13;5.97;;;1.60;;
41689;SDS011;27372;42.658;23.256;2024-03-29T02:10:39;5.40;;;1.70;;
41689;SDS011;27372;42.658;23.256;2024-03-29T02:13:04;6.15;;;1.80;;
41689;SDS011;27372;42.658;23.256;2024-03-29T02:15:30;6.82;;;1.85;;
41689;SDS011;27372;42.658;23.256;2024-03-29T02:17:57;6.13;;;2.03;;
41689;SDS011;27372;42.658;23.256;2024-03-29T02:20:23;6.50;;;1.70;;
41689;SDS011;27372;42.658;23.256;2024-03-29T02:25:35;4.75;;;1.67;;
41689;SDS011;27372;42.658;23.256;2024-03-29T02:28:01;10.02;;;1.83;;
41689;SDS011;27372;42.658;23.256;2024-03-29T02:30:30;6.63;;;1.73;;
41689;SDS011;27372;42.658;23.256;2024-03-29T02:32:56;7.78;;;2.35;;
41689;SDS011;27372;42.658;23.256;2024-03-29T02:35:22;5.32;;;1.88;;
41689;SDS011;27372;42.658;23.256;2024-03-29T02:37:48;8.45;;;2.30;;
41689;SDS011;27372;42.658;23.256;2024-03-29T02:40:13;8.27;;;2.95;;
41689;SDS011;27372;42.658;23.256;2024-03-29T02:42:39;5.30;;;2.60;;
41689;SDS011;27372;42.658;23.256;2024-03-29T02:45:04;4.65;;;1.75;;
41689;SDS011;27372;42.658;23.256;2024-03-29T02:47:30;5.80;;;2.10;;
41689;SDS011;27372;42.658;23.256;2024-03-29T02:49:55;5.60;;;2.00;;
41689;SDS011;27372;42.658;23.256;2024-03-29T02:52:21;7.82;;;2.35;;
41689;SDS011;27372;42.658;23.256;2024-03-29T02:54:46;6.82;;;1.60;;
41689;SDS011;27372;42.658;23.256;2024-03-29T02:57:12;3.10;;;1.65;;
41689;SDS011;27372;42.658;23.256;2024-03-29T02:59:39;4.70;;;2.05;;
41689;SDS011;27372;42.658;23.256;2024-03-29T03:02:05;4.13;;;1.48;;
41689;SDS011;27372;42.658;23.256;2024-03-29T03:04:30;3.67;;;1.58;;
41689;SDS011;27372;42.658;23.256;2024-03-29T03:06:56;7.18;;;1.50;;
41689;SDS011;27372;42.658;23.256;2024-03-29T03:09:41;5.38;;;1.77;;
41689;SDS011;27372;42.658;23.256;2024-03-29T03:12:25;6.32;;;1.80;;
41689;SDS011;27372;42.658;23.256;2024-03-29T03:14:51;3.78;;;1.55;;
41689;SDS011;27372;42.658;23.256;2024-03-29T03:17:16;3.90;;;1.77;;
41689;SDS011;27372;42.658;23.256;2024-03-29T03:19:41;5.47;;;1.60;;
41689;SDS011;27372;42.658;23.256;2024-03-29T03:22:07;4.93;;;1.85;;
41689;SDS011;27372;42.658;23.256;2024-03-29T03:24:33;3.53;;;1.30;;
41689;SDS011;27372;42.658;23.256;2024-03-29T03:26:58;8.43;;;1.88;;
41689;SDS011;27372;42.658;23.256;2024-03-29T03:29:24;6.28;;;2.58;;
41689;SDS011;27372;42.658;23.256;2024-03-29T03:31:50;14.00;;;5.75;;
41689;SDS011;27372;42.658;23.256;2024-03-29T03:34:15;8.50;;;4.05;;
41689;SDS011;27372;42.658;23.256;2024-03-29T03:36:41;10.18;;;5.32;;
41689;SDS011;27372;42.658;23.256;2024-03-29T03:39:06;11.52;;;6.38;;
41689;SDS011;27372;42.658;23.256;2024-03-29T03:41:31;10.52;;;4.90;;
41689;SDS011;27372;42.658;23.256;2024-03-29T03:43:57;6.50;;;2.70;;
41689;SDS011;27372;42.658;23.256;2024-03-29T03:46:22;3.92;;;1.50;;
41689;SDS011;27372;42.658;23.256;2024-03-29T03:48:48;5.57;;;1.83;;
41689;SDS011;27372;42.658;23.256;2024-03-29T03:51:13;3.78;;;1.88;;
41689;SDS011;27372;42.658;23.256;2024-03-29T03:53:39;5.75;;;2.17;;
41689;SDS011;27372;42.658;23.256;2024-03-29T03:56:05;6.35;;;1.75;;
41689;SDS011;27372;42.658;23.256;2024-03-29T03:58:30;3.85;;;1.55;;
41689;SDS011;27372;42.658;23.256;2024-03-29T04:00:56;5.30;;;1.45;;
41689;SDS011;27372;42.658;23.256;2024-03-29T04:03:22;4.68;;;1.45;;
41689;SDS011;27372;42.658;23.256;2024-03-29T04:05:47;3.35;;;1.48;;
41689;SDS011;27372;42.658;23.256;2024-03-29T04:08:14;1.95;;;1.10;;
41689;SDS011;27372;42.658;23.256;2024-03-29T04:10:41;2.97;;;1.40;;
41689;SDS011;27372;42.658;23.256;2024-03-29T04:13:06;3.30;;;1.40;;
41689;SDS011;27372;42.658;23.256;2024-03-29T04:15:33;5.30;;;1.33;;
41689;SDS011;27372;42.658;23.256;2024-03-29T04:17:59;2.10;;;1.10;;
41689;SDS011;27372;42.658;23.256;2024-03-29T04:20:25;5.63;;;1.38;;
41689;SDS011;27372;42.658;23.256;2024-03-29T04:22:50;5.65;;;1.27;;
41689;SDS011;27372;42.658;23.256;2024-03-29T04:25:16;3.90;;;1.50;;
41689;SDS011;27372;42.658;23.256;2024-03-29T04:27:41;3.85;;;1.40;;
41689;SDS011;27372;42.658;23.256;2024-03-29T04:30:07;4.80;;;1.30;;
41689;SDS011;27372;42.658;23.256;2024-03-29T04:32:33;3.42;;;1.73;;
41689;SDS011;27372;42.658;23.256;2024-03-29T04:34:58;4.15;;;1.48;;
41689;SDS011;27372;42.658;23.256;2024-03-29T04:37:24;5.85;;;1.50;;
41689;SDS011;27372;42.658;23.256;2024-03-29T04:39:49;3.00;;;1.42;;
41689;SDS011;27372;42.658;23.256;2024-03-29T04:42:15;4.55;;;1.80;;
41689;SDS011;27372;42.658;23.256;2024-03-29T04:44:40;2.65;;;1.30;;
41689;SDS011;27372;42.658;23.256;2024-03-29T04:47:06;2.45;;;1.52;;
41689;SDS011;27372;42.658;23.256;2024-03-29T04:49:32;3.42;;;1.48;;
41689;SDS011;27372;42.658;23.256;2024-03-29T04:52:01;3.92;;;1.30;;
41689;SDS011;27372;42.658;23.256;2024-03-29T04:54:31;3.95;;;1.70;;
41689;SDS011;27372;42.658;23.256;2024-03-29T04:56:57;3.83;;;1.55;;
41689;SDS011;27372;42.658;23.256;2024-03-29T04:59:24;4.30;;;1.40;;
41689;SDS011;27372;42.658;23.256;2024-03-29T05:01:49;3.42;;;1.50;;
41689;SDS011;27372;42.658;23.256;2024-03-29T05:06:53;3.25;;;1.13;;
41689;SDS011;27372;42.658;23.256;2024-03-29T05:09:20;5.57;;;1.40;;
41689;SDS011;27372;42.658;23.256;2024-03-29T05:11:46;4.07;;;1.40;;
41689;SDS011;27372;42.658;23.256;2024-03-29T05:14:17;3.83;;;1.23;;
41689;SDS011;27372;42.658;23.256;2024-03-29T05:16:47;2.53;;;1.38;;
41689;SDS011;27372;42.658;23.256;2024-03-29T05:19:13;3.15;;;1.38;;
41689;SDS011;27372;42.658;23.256;2024-03-29T05:21:39;3.67;;;1.98;;
41689;SDS011;27372;42.658;23.256;2024-03-29T05:24:05;3.83;;;1.70;;
41689;SDS011;27372;42.658;23.256;2024-03-29T05:26:31;4.78;;;2.38;;
41689;SDS011;27372;42.658;23.256;2024-03-29T05:28:58;4.18;;;1.75;;
41689;SDS011;27372;42.658;23.256;2024-03-29T05:31:23;6.25;;;2.20;;
41689;SDS011;27372;42.658;23.256;2024-03-29T05:33:50;5.65;;;1.67;;
41689;SDS011;27372;42.658;23.256;2024-03-29T05:36:15;4.75;;;1.52;;
41689;SDS011;27372;42.658;23.256;2024-03-29T05:38:41;8.68;;;2.63;;
41689;SDS011;27372;42.658;23.256;2024-03-29T05:41:07;7.55;;;2.95;;
41689;SDS011;27372;42.658;23.256;2024-03-29T05:43:33;6.50;;;3.10;;
41689;SDS011;27372;42.658;23.256;2024-03-29T05:45:59;6.85;;;3.10;;
41689;SDS011;27372;42.658;23.256;2024-03-29T05:48:27;8.30;;;4.10;;
41689;SDS011;27372;42.658;23.256;2024-03-29T05:50:54;7.28;;;2.70;;
41689;SDS011;27372;42.658;23.256;2024-03-29T05:53:23;5.80;;;2.40;;
41689;SDS011;27372;42.658;23.256;2024-03-29T05:55:49;5.97;;;1.52;;
41689;SDS011;27372;42.658;23.256;2024-03-29T05:58:14;3.13;;;1.40;;
41689;SDS011;27372;42.658;23.256;2024-03-29T06:00:42;3.13;;;1.60;;
41689;SDS011;27372;42.658;23.256;2024-03-29T06:03:08;3.17;;;2.00;;
41689;SDS011;27372;42.658;23.256;2024-03-29T06:05:34;8.57;;;1.70;;
41689;SDS011;27372;42.658;23.256;2024-03-29T06:07:59;3.78;;;1.80;;
41689;SDS011;27372;42.658;23.256;2024-03-29T06:10:25;3.00;;;1.58;;
41689;SDS011;27372;42.658;23.256;2024-03-29T06:12:50;3.28;;;1.60;;
41689;SDS011;27372;42.658;23.256;2024-03-29T06:15:16;4.10;;;1.35;;
41689;SDS011;27372;42.658;23.256;2024-03-29T06:18:00;2.60;;;1.27;;
41689;SDS011;27372;42.658;23.256;2024-03-29T06:20:25;7.57;;;1.65;;
41689;SDS011;27372;42.658;23.256;2024-03-29T06:22:51;7.22;;;1.38;;
41689;SDS011;27372;42.658;23.256;2024-03-29T06:25:16;5.22;;;1.40;;
41689;SDS011;27372;42.658;23.256;2024-03-29T06:27:42;7.80;;;1.40;;
41689;SDS011;27372;42.658;23.256;2024-03-29T06:30:14;2.35;;;1.17;;
41689;SDS011;27372;42.658;23.256;2024-03-29T06:32:41;3.78;;;1.48;;
41689;SDS011;27372;42.658;23.256;2024-03-29T06:35:07;5.95;;;1.40;;
41689;SDS011;27372;42.658;23.256;2024-03-29T06:37:33;5.75;;;1.40;;
41689;SDS011;27372;42.658;23.256;2024-03-29T06:39:59;3.78;;;1.33;;
41689;SDS011;27372;42.658;23.256;2024-03-29T06:42:24;3.33;;;1.25;;
41689;SDS011;27372;42.658;23.256;2024-03-29T06:44:51;4.30;;;1.20;;
41689;SDS011;27372;42.658;23.256;2024-03-29T06:47:19;3.75;;;1.20;;
41689;SDS011;27372;42.658;23.256;2024-03-29T06:49:45;4.93;;;1.20;;
41689;SDS011;27372;42.658;23.256;2024-03-29T06:52:11;4.65;;;1.42;;
41689;SDS011;27372;42.658;23.256;2024-03-29T06:54:36;4.10;;;1.30;;
41689;SDS011;27372;42.658;23.256;2024-03-29T06:57:02;4.15;;;1.38;;
41689;SDS011;27372;42.658;23.256;2024-03-29T06:59:28;2.25;;;1.10;;
41689;SDS011;27372;42.658;23.256;2024-03-29T07:01:53;3.78;;;1.20;;
41689;SDS011;27372;42.658;23.256;2024-03-29T07:04:20;7.78;;;1.50;;
41689;SDS011;27372;42.658;23.256;2024-03-29T07:06:46;6.80;;;1.20;;
41689;SDS011;27372;42.658;23.256;2024-03-29T07:09:21;3.20;;;1.10;;
41689;SDS011;27372;42.658;23.256;2024-03-29T07:11:48;2.42;;;1.17;;
41689;SDS011;27372;42.658;23.256;2024-03-29T07:14:14;5.75;;;1.50;;
41689;SDS011;27372;42.658;23.256;2024-03-29T07:16:41;1.65;;;1.02;;
41689;SDS011;27372;42.658;23.256;2024-03-29T07:19:07;4.13;;;1.38;;
41689;SDS011;27372;42.658;23.256;2024-03-29T07:21:32;2.13;;;1.33;;
41689;SDS011;27372;42.658;23.256;2024-03-29T07:23:57;2.10;;;1.00;;
41689;SDS011;27372;42.658;23.256;2024-03-29T07:26:23;3.63;;;1.13;;
41689;SDS011;27372;42.658;23.256;2024-03-29T07:28:49;4.72;;;1.20;;
41689;SDS011;27372;42.658;23.256;2024-03-29T07:31:15;4.82;;;1.40;;
41689;SDS011;27372;42.658;23.256;2024-03-29T07:33:40;3.40;;;1.17;;
41689;SDS011;27372;42.658;23.256;2024-03-29T07:36:06;4.28;;;1.23;;
41689;SDS011;27372;42.658;23.256;2024-03-29T07:38:34;9.82;;;1.40;;
41689;SDS011;27372;42.658;23.256;2024-03-29T07:40:59;3.17;;;1.20;;
41689;SDS011;27372;42.658;23.256;2024-03-29T07:43:25;4.97;;;1.40;;
41689;SDS011;27372;42.658;23.256;2024-03-29T07:45:50;5.10;;;1.52;;
41689;SDS011;27372;42.658;23.256;2024-03-29T07:48:16;4.65;;;1.38;;
41689;SDS011;27372;42.658;23.256;2024-03-29T07:50:43;2.80;;;1.10;;
41689;SDS011;27372;42.658;23.256;2024-03-29T07:53:09;6.80;;;1.30;;
41689;SDS011;27372;42.658;23.256;2024-03-29T07:55:36;8.40;;;1.67;;
41689;SDS011;27372;42.658;23.256;2024-03-29T07:58:03;8.02;;;1.52;;
41689;SDS011;27372;42.658;23.256;2024-03-29T08:00:31;4.18;;;1.23;;
41689;SDS011;27372;42.658;23.256;2024-03-29T08:02:57;2.85;;;1.10;;
41689;SDS011;27372;42.658;23.256;2024-03-29T08:05:23;5.32;;;1.80;;
41689;SDS011;27372;42.658;23.256;2024-03-29T08:07:49;3.45;;;1.20;;
41689;SDS011;27372;42.658;23.256;2024-03-29T08:10:14;3.92;;;1.40;;
41689;SDS011;27372;42.658;23.256;2024-03-29T08:12:40;3.22;;;1.20;;
41689;SDS011;27372;42.658;23.256;2024-03-29T08:15:05;4.40;;;1.05;;
41689;SDS011;27372;42.658;23.256;2024-03-29T08:17:31;2.13;;;1.10;;
41689;SDS011;27372;42.658;23.256;2024-03-29T08:19:56;5.70;;;1.13;;
41689;SDS011;27372;42.658;23.256;2024-03-29T08:22:23;3.47;;;1.23;;
41689;SDS011;27372;42.658;23.256;2024-03-29T08:24:48;4.03;;;1.10;;
41689;SDS011;27372;42.658;23.256;2024-03-29T08:27:14;5.25;;;1.20;;
41689;SDS011;27372;42.658;23.256;2024-03-29T08:29:43;4.10;;;1.38;;
41689;SDS011;27372;42.658;23.256;2024-03-29T08:32:08;3.80;;;1.40;;
41689;SDS011;27372;42.658;23.256;2024-03-29T08:34:37;2.55;;;1.20;;
41689;SDS011;27372;42.658;23.256;2024-03-29T08:37:03;3.88;;;1.00;;
41689;SDS011;27372;42.658;23.256;2024-03-29T08:39:32;2.55;;;1.20;;
41689;SDS011;27372;42.658;23.256;2024-03-29T08:41:58;3.28;;;1.40;;
41689;SDS011;27372;42.658;23.256;2024-03-29T08:44:24;4.07;;;1.60;;
41689;SDS011;27372;42.658;23.256;2024-03-29T08:46:51;2.80;;;1.20;;
41689;SDS011;27372;42.658;23.256;2024-03-29T08:49:17;3.80;;;1.50;;
41689;SDS011;27372;42.658;23.256;2024-03-29T08:51:42;4.47;;;1.30;;
41689;SDS011;27372;42.658;23.256;2024-03-29T08:54:08;3.50;;;1.30;;
41689;SDS011;27372;42.658;23.256;2024-03-29T08:56:33;3.85;;;1.17;;
41689;SDS011;27372;42.658;23.256;2024-03-29T08:59:02;4.95;;;1.40;;
41689;SDS011;27372;42.658;23.256;2024-03-29T09:01:33;3.70;;;1.42;;
41689;SDS011;27372;42.658;23.256;2024-03-29T09:03:59;3.05;;;1.50;;
41689;SDS011;27372;42.658;23.256;2024-03-29T09:06:24;8.52;;;1.58;;
41689;SDS011;27372;42.658;23.256;2024-03-29T09:08:50;4.05;;;1.20;;
41689;SDS011;27372;42.658;23.256;2024-03-29T09:11:15;4.90;;;1.35;;
41689;SDS011;27372;42.658;23.256;2024-03-29T09:13:41;3.03;;;1.30;;
41689;SDS011;27372;42.658;23.256;2024-03-29T09:16:06;2.97;;;1.27;;
41689;SDS011;27372;42.658;23.256;2024-03-29T09:18:32;2.65;;;1.23;;
41689;SDS011;27372;42.658;23.256;2024-03-29T09:21:00;14.30;;;2.30;;
41689;SDS011;27372;42.658;23.256;2024-03-29T09:23:26;16.52;;;2.10;;
41689;SDS011;27372;42.658;23.256;2024-03-29T09:25:56;3.17;;;1.20;;
41689;SDS011;27372;42.658;23.256;2024-03-29T09:28:22;4.45;;;1.30;;
41689;SDS011;27372;42.658;23.256;2024-03-29T09:30:48;4.07;;;1.60;;
41689;SDS011;27372;42.658;23.256;2024-03-29T09:33:14;2.72;;;1.30;;
41689;SDS011;27372;42.658;23.256;2024-03-29T09:35:40;8.63;;;1.60;;
41689;SDS011;27372;42.658;23.256;2024-03-29T09:38:05;5.28;;;1.65;;
41689;SDS011;27372;42.658;23.256;2024-03-29T09:40:31;4.82;;;1.13;;
41689;SDS011;27372;42.658;23.256;2024-03-29T09:42:59;8.65;;;2.05;;
41689;SDS011;27372;42.658;23.256;2024-03-29T09:45:31;4.57;;;1.27;;
41689;SDS011;27372;42.658;23.256;2024-03-29T09:48:04;7.78;;;1.40;;
41689;SDS011;27372;42.658;23.256;2024-03-29T09:50:30;5.10;;;1.20;;
41689;SDS011;27372;42.658;23.256;2024-03-29T09:52:57;9.35;;;1.63;;
41689;SDS011;27372;42.658;23.256;2024-03-29T09:55:23;5.88;;;1.20;;
41689;SDS011;27372;42.658;23.256;2024-03-29T09:57:49;2.83;;;1.25;;
41689;SDS011;27372;42.658;23.256;2024-03-29T10:00:16;4.28;;;1.30;;
41689;SDS011;27372;42.658;23.256;2024-03-29T10:02:43;3.83;;;1.38;;
41689;SDS011;27372;42.658;23.256;2024-03-29T10:05:09;4.30;;;1.48;;
41689;SDS011;27372;42.658;23.256;2024-03-29T10:07:37;5.05;;;1.25;;
41689;SDS011;27372;42.658;23.256;2024-03-29T10:10:05;5.82;;;1.50;;
41689;SDS011;27372;42.658;23.256;2024-03-29T10:12:32;4.38;;;1.25;;
41689;SDS011;27372;42.658;23.256;2024-03-29T10:14:57;6.50;;;1.40;;
41689;SDS011;27372;42.658;23.256;2024-03-29T10:17:44;6.93;;;1.67;;
41689;SDS011;27372;42.658;23.256;2024-03-29T10:20:11;8.88;;;1.77;;
41689;SDS011;27372;42.658;23.256;2024-03-29T10:22:42;6.30;;;1.77;;
41689;SDS011;27372;42.658;23.256;2024-03-29T10:25:09;4.00;;;1.50;;
41689;SDS011;27372;42.658;23.256;2024-03-29T10:27:38;5.97;;;1.38;;
41689;SDS011;27372;42.658;23.256;2024-03-29T10:30:06;5.78;;;1.60;;
41689;SDS011;27372;42.658;23.256;2024-03-29T10:34:59;3.67;;;1.35;;
41689;SDS011;27372;42.658;23.256;2024-03-29T10:39:54;6.70;;;1.50;;
41689;SDS011;27372;42.658;23.256;2024-03-29T10:42:21;8.88;;;1.70;;
41689;SDS011;27372;42.658;23.256;2024-03-29T10:44:50;4.53;;;1.50;;
41689;SDS011;27372;42.658;23.256;2024-03-29T10:47:19;9.60;;;1.80;;
41689;SDS011;27372;42.658;23.256;2024-03-29T10:49:49;6.85;;;1.70;;
41689;SDS011;27372;42.658;23.256;2024-03-29T10:52:16;7.03;;;1.80;;
41689;SDS011;27372;42.658;23.256;2024-03-29T10:54:45;5.93;;;1.48;;
41689;SDS011;27372;42.658;23.256;2024-03-29T10:57:16;7.68;;;1.63;;
41689;SDS011;27372;42.658;23.256;2024-03-29T11:04:56;7.32;;;1.60;;
41689;SDS011;27372;42.658;23.256;2024-03-29T11:07:27;6.53;;;2.00;;
41689;SDS011;27372;42.658;23.256;2024-03-29T11:09:55;7.57;;;1.70;;
41689;SDS011;27372;42.658;23.256;2024-03-29T11:12:25;3.80;;;1.33;;
41689;SDS011;27372;42.658;23.256;2024-03-29T11:14:57;6.30;;;1.90;;
41689;SDS011;27372;42.658;23.256;2024-03-29T11:17:29;5.13;;;1.83;;
41689;SDS011;27372;42.658;23.256;2024-03-29T11:19:55;7.15;;;1.48;;
41689;SDS011;27372;42.658;23.256;2024-03-29T11:22:22;4.47;;;1.52;;
41689;SDS011;27372;42.658;23.256;2024-03-29T11:24:50;7.72;;;1.77;;
41689;SDS011;27372;42.658;23.256;2024-03-29T11:27:16;8.32;;;1.75;;
41689;SDS011;27372;42.658;23.256;2024-03-29T11:29:41;5.15;;;1.40;;
41689;SDS011;27372;42.658;23.256;2024-03-29T11:32:08;7.18;;;1.52;;
41689;SDS011;27372;42.658;23.256;2024-03-29T11:34:34;4.70;;;1.40;;
41689;SDS011;27372;42.658;23.256;2024-03-29T11:37:12;7.03;;;1.92;;
41689;SDS011;27372;42.658;23.256;2024-03-29T11:39:38;3.53;;;1.70;;
41689;SDS011;27372;42.658;23.256;2024-03-29T11:42:05;19.10;;;1.65;;
41689;SDS011;27372;42.658;23.256;2024-03-29T11:44:31;3.05;;;1.70;;
41689;SDS011;27372;42.658;23.256;2024-03-29T11:46:57;6.60;;;1.60;;
41689;SDS011;27372;42.658;23.256;2024-03-29T11:49:23;8.75;;;2.10;;
41689;SDS011;27372;42.658;23.256;2024-03-29T11:51:49;5.82;;;1.40;;
41689;SDS011;27372;42.658;23.256;2024-03-29T11:54:14;3.38;;;1.42;;
41689;SDS011;27372;42.658;23.256;2024-03-29T11:56:41;5.07;;;1.70;;
41689;SDS011;27372;42.658;23.256;2024-03-29T11:59:07;3.40;;;1.60;;
41689;SDS011;27372;42.658;23.256;2024-03-29T12:01:34;4.28;;;1.80;;
41689;SDS011;27372;42.658;23.256;2024-03-29T12:04:00;3.95;;;1.58;;
41689;SDS011;27372;42.658;23.256;2024-03-29T12:06:26;5.97;;;1.30;;
41689;SDS011;27372;42.658;23.256;2024-03-29T12:08:52;4.90;;;1.65;;
41689;SDS011;27372;42.658;23.256;2024-03-29T12:11:18;6.00;;;1.40;;
41689;SDS011;27372;42.658;23.256;2024-03-29T12:13:44;7.78;;;1.73;;
41689;SDS011;27372;42.658;23.256;2024-03-29T12:16:09;4.70;;;1.52;;
41689;SDS011;27372;42.658;23.256;2024-03-29T12:18:35;7.03;;;1.55;;
41689;SDS011;27372;42.658;23.256;2024-03-29T12:21:01;5.63;;;1.60;;
41689;SDS011;27372;42.658;23.256;2024-03-29T12:23:27;6.38;;;1.48;;
41689;SDS011;27372;42.658;23.256;2024-03-29T12:25:54;4.55;;;1.40;;
41689;SDS011;27372;42.658;23.256;2024-03-29T12:28:22;5.38;;;1.52;;
41689;SDS011;27372;42.658;23.256;2024-03-29T12:30:49;7.13;;;1.60;;
41689;SDS011;27372;42.658;23.256;2024-03-29T12:33:16;7.07;;;1.50;;
41689;SDS011;27372;42.658;23.256;2024-03-29T12:35:48;5.43;;;1.60;;
41689;SDS011;27372;42.658;23.256;2024-03-29T12:38:18;4.40;;;1.52;;
41689;SDS011;27372;42.658;23.256;2024-03-29T12:40:45;6.25;;;1.58;;
41689;SDS011;27372;42.658;23.256;2024-03-29T12:43:18;3.80;;;1.55;;
41689;SDS011;27372;42.658;23.256;2024-03-29T12:45:45;4.82;;;1.50;;
41689;SDS011;27372;42.658;23.256;2024-03-29T12:50:39;5.05;;;1.42;;
41689;SDS011;27372;42.658;23.256;2024-03-29T12:53:06;4.70;;;1.63;;
41689;SDS011;27372;42.658;23.256;2024-03-29T12:55:32;3.22;;;1.30;;
41689;SDS011;27372;42.658;23.256;2024-03-29T12:58:03;4.45;;;1.20;;
41689;SDS011;27372;42.658;23.256;2024-03-29T13:00:30;3.28;;;1.10;;
41689;SDS011;27372;42.658;23.256;2024-03-29T13:02:56;3.78;;;1.00;;
41689;SDS011;27372;42.658;23.256;2024-03-29T13:05:22;2.33;;;1.10;;
41689;SDS011;27372;42.658;23.256;2024-03-29T13:07:48;2.47;;;0.98;;
41689;SDS011;27372;42.658;23.256;2024-03-29T13:10:13;2.58;;;1.00;;
41689;SDS011;27372;42.658;23.256;2024-03-29T13:12:42;2.72;;;1.02;;
41689;SDS011;27372;42.658;23.256;2024-03-29T13:17:41;1.15;;;0.90;;
41689;SDS011;27372;42.658;23.256;2024-03-29T13:20:06;2.50;;;1.17;;
41689;SDS011;27372;42.658;23.256;2024-03-29T13:22:33;3.35;;;1.30;;
41689;SDS011;27372;42.658;23.256;2024-03-29T13:24:59;3.08;;;1.20;;
41689;SDS011;27372;42.658;23.256;2024-03-29T13:27:26;3.47;;;1.10;;
41689;SDS011;27372;42.658;23.256;2024-03-29T13:29:51;1.98;;;1.10;;
41689;SDS011;27372;42.658;23.256;2024-03-29T13:32:18;3.97;;;1.30;;
41689;SDS011;27372;42.658;23.256;2024-03-29T13:34:43;5.43;;;1.23;;
41689;SDS011;27372;42.658;23.256;2024-03-29T13:37:09;4.28;;;1.23;;
41689;SDS011;27372;42.658;23.256;2024-03-29T13:39:34;3.03;;;1.05;;
41689;SDS011;27372;42.658;23.256;2024-03-29T13:42:00;3.05;;;1.30;;
41689;SDS011;27372;42.658;23.256;2024-03-29T13:44:25;3.42;;;1.25;;
41689;SDS011;27372;42.658;23.256;2024-03-29T13:46:50;3.85;;;1.30;;
41689;SDS011;27372;42.658;23.256;2024-03-29T13:49:17;11.27;;;1.45;;
41689;SDS011;27372;42.658;23.256;2024-03-29T13:51:46;2.67;;;1.08;;
41689;SDS011;27372;42.658;23.256;2024-03-29T13:54:12;4.57;;;1.67;;
41689;SDS011;27372;42.658;23.256;2024-03-29T13:56:37;4.18;;;1.33;;
41689;SDS011;27372;42.658;23.256;2024-03-29T13:59:04;1.50;;;1.02;;
41689;SDS011;27372;42.658;23.256;2024-03-29T14:01:30;19.10;;;1.90;;
41689;SDS011;27372;42.658;23.256;2024-03-29T14:03:56;1.98;;;1.20;;
41689;SDS011;27372;42.658;23.256;2024-03-29T14:06:22;3.03;;;1.42;;
41689;SDS011;27372;42.658;23.256;2024-03-29T14:08:47;7.13;;;1.33;;
41689;SDS011;27372;42.658;23.256;2024-03-29T14:11:13;1.15;;;1.00;;
41689;SDS011;27372;42.658;23.256;2024-03-29T14:13:40;2.40;;;1.17;;
41689;SDS011;27372;42.658;23.256;2024-03-29T14:16:06;6.78;;;1.70;;
41689;SDS011;27372;42.658;23.256;2024-03-29T14:18:31;4.70;;;1.23;;
41689;SDS011;27372;42.658;23.256;2024-03-29T14:20:57;2.67;;;1.23;;
41689;SDS011;27372;42.658;23.256;2024-03-29T14:23:23;2.70;;;1.20;;
41689;SDS011;27372;42.658;23.256;2024-03-29T14:25:50;3.28;;;1.17;;
41689;SDS011;27372;42.658;23.256;2024-03-29T14:28:18;3.60;;;1.20;;
41689;SDS011;27372;42.658;23.256;2024-03-29T14:30:44;2.88;;;1.35;;
41689;SDS011;27372;42.658;23.256;2024-03-29T14:33:09;2.33;;;1.10;;
41689;SDS011;27372;42.658;23.256;2024-03-29T14:35:35;2.47;;;1.27;;
41689;SDS011;27372;42.658;23.256;2024-03-29T14:38:01;3.90;;;1.20;;
41689;SDS011;27372;42.658;23.256;2024-03-29T14:40:26;2.38;;;1.00;;
41689;SDS011;27372;42.658;23.256;2024-03-29T14:42:52;1.13;;;0.88;;
41689;SDS011;27372;42.658;23.256;2024-03-29T14:45:23;2.17;;;0.90;;
41689;SDS011;27372;42.658;23.256;2024-03-29T14:47:48;6.35;;;1.17;;
41689;SDS011;27372;42.658;23.256;2024-03-29T14:50:14;2.03;;;1.30;;